createdAt,value
2018-08-31T00:09:01.535Z,1017.32
2018-08-31T00:14:01.432Z,1017.3
2018-08-31T00:29:01.518Z,1017.39
2018-08-31T00:34:01.456Z,1017.36
2018-08-31T00:49:01.467Z,1017.31
2018-08-31T00:59:01.511Z,1017.4
2018-08-31T01:09:01.516Z,1017.44
2018-08-31T01:24:01.456Z,1017.35
2018-08-31T01:39:01.568Z,1017.41
2018-08-31T01:45:01.401Z,1017.35
2018-08-31T01:55:01.450Z,1017.27
2018-08-31T02:00:01.555Z,1017.27
2018-08-31T02:05:01.389Z,1017.35
2018-08-31T02:10:01.522Z,1017.35
2018-08-31T02:15:01.399Z,1017.35
2018-08-31T02:30:01.479Z,1017.39
2018-08-31T02:45:01.463Z,1017.38
2018-08-31T03:00:01.557Z,1017.46
2018-08-31T03:05:01.401Z,1017.4
2018-08-31T03:15:01.464Z,1017.44
2018-08-31T03:20:01.551Z,1017.44
2018-08-31T03:30:01.514Z,1017.42
2018-08-31T03:40:01.615Z,1017.47
2018-08-31T03:45:01.515Z,1017.5
2018-08-31T03:55:01.511Z,1017.59
2018-08-31T04:00:01.747Z,1017.59
2018-08-31T04:10:01.559Z,1017.6
2018-08-31T04:15:01.591Z,1017.64
2018-08-31T04:25:01.547Z,1017.69
2018-08-31T04:30:01.544Z,1017.69
2018-08-31T04:40:01.671Z,1017.73
2018-08-31T04:45:01.515Z,1017.75
2018-08-31T05:00:01.558Z,1017.73
2018-08-31T05:15:01.558Z,1017.76
2018-08-31T05:20:01.577Z,1017.76
2018-08-31T05:25:03.308Z,1017.72
2018-08-31T05:30:01.553Z,1017.72
2018-08-31T05:35:01.618Z,1017.73
2018-08-31T05:40:01.611Z,1017.73
2018-08-31T05:45:01.577Z,1017.68
2018-08-31T05:50:01.529Z,1017.68
2018-08-31T05:55:01.669Z,1017.75
2018-08-31T06:00:01.581Z,1017.75
2018-08-31T06:05:01.588Z,1017.78
2018-08-31T06:10:01.567Z,1017.78
2018-08-31T06:15:01.622Z,1017.74
2018-08-31T06:20:01.553Z,1017.74
2018-08-31T06:25:01.624Z,1017.73
2018-08-31T06:30:01.617Z,1017.73
2018-08-31T06:35:01.553Z,1017.87
2018-08-31T06:40:01.666Z,1017.87
2018-08-31T06:45:01.755Z,1017.79
2018-08-31T06:50:01.483Z,1017.79
2018-08-31T06:55:01.840Z,1017.76
2018-08-31T07:00:01.633Z,1017.76
2018-08-31T07:05:01.436Z,1017.84
2018-08-31T07:10:01.533Z,1017.84
2018-08-31T07:15:01.553Z,1017.74
2018-08-31T07:20:01.518Z,1017.74
2018-08-31T07:25:01.408Z,1017.73
2018-08-31T07:30:01.716Z,1017.73
2018-08-31T07:35:01.413Z,1017.63
2018-08-31T07:40:01.558Z,1017.63
2018-08-31T07:45:01.702Z,1017.62
2018-08-31T07:50:01.613Z,1017.62
2018-08-31T07:55:01.844Z,1017.58
2018-08-31T08:00:01.612Z,1017.58
2018-08-31T08:05:01.412Z,1017.53
2018-08-31T08:15:01.652Z,1017.59
2018-08-31T08:20:01.486Z,1017.59
2018-08-31T08:25:01.414Z,1017.65
2018-08-31T08:30:01.646Z,1017.65
2018-08-31T08:35:01.443Z,1017.82
2018-08-31T08:40:01.555Z,1017.82
2018-08-31T08:45:01.680Z,1017.75
2018-08-31T08:55:01.491Z,1017.78
2018-08-31T09:00:01.628Z,1017.78
2018-08-31T09:05:01.461Z,1017.77
2018-08-31T09:10:01.541Z,1017.77
2018-08-31T09:15:01.541Z,1017.81
2018-08-31T09:20:01.554Z,1017.81
2018-08-31T09:25:01.410Z,1017.74
2018-08-31T09:30:01.740Z,1017.74
2018-08-31T09:35:01.510Z,1017.86
2018-08-31T09:40:01.466Z,1017.86
2018-08-31T09:45:01.545Z,1017.84
2018-08-31T09:50:01.534Z,1017.84
2018-08-31T09:55:01.501Z,1017.8
2018-08-31T10:00:01.623Z,1017.8
2018-08-31T10:10:01.529Z,1017.88
2018-08-31T10:15:01.530Z,1017.78
2018-08-31T10:20:01.571Z,1017.78
2018-08-31T10:25:01.422Z,1017.7
2018-08-31T10:30:01.843Z,1017.7
2018-08-31T10:35:01.404Z,1017.79
2018-08-31T10:45:01.545Z,1017.88
2018-08-31T10:50:01.561Z,1017.88
2018-08-31T10:55:01.522Z,1017.84
2018-08-31T11:00:01.666Z,1017.84
2018-08-31T11:10:01.459Z,1017.68
2018-08-31T11:15:01.754Z,1017.64
2018-08-31T11:20:01.526Z,1017.64
2018-08-31T11:25:03.219Z,1017.74
2018-08-31T11:30:01.513Z,1017.74
2018-08-31T11:35:06.422Z,1017.72
2018-08-31T11:40:01.854Z,1017.72
2018-08-31T11:45:01.614Z,1017.58
2018-08-31T11:50:01.518Z,1017.58
2018-08-31T11:55:01.600Z,1017.62
2018-08-31T12:00:02.143Z,1017.62
2018-08-31T12:05:01.397Z,1017.63
2018-08-31T12:10:01.487Z,1017.63
2018-08-31T12:15:01.553Z,1017.57
2018-08-31T12:20:01.472Z,1017.57
2018-08-31T12:25:01.599Z,1017.58
2018-08-31T12:30:02.721Z,1017.58
2018-08-31T12:45:01.683Z,1017.5
2018-08-31T12:50:01.601Z,1017.5
2018-08-31T12:55:01.554Z,1017.42
2018-08-31T13:00:02.911Z,1017.42
2018-08-31T13:05:01.391Z,1017.35
2018-08-31T13:10:01.469Z,1017.35
2018-08-31T13:15:01.545Z,1017.36
2018-08-31T13:25:01.478Z,1017.5
2018-08-31T13:30:03.612Z,1017.5
2018-08-31T13:45:01.883Z,1017.45
2018-08-31T13:50:01.609Z,1017.45
2018-08-31T13:55:01.515Z,1017.47
2018-08-31T14:00:01.759Z,1017.47
2018-08-31T14:10:05.717Z,1017.48
2018-08-31T14:15:01.548Z,1017.68
2018-08-31T14:25:01.533Z,1017.61
2018-08-31T14:30:03.222Z,1017.61
2018-08-31T14:35:01.431Z,1017.7
2018-08-31T14:45:03.668Z,1017.72
2018-08-31T14:50:02.852Z,1017.72
2018-08-31T14:55:01.434Z,1017.76
2018-08-31T15:00:01.689Z,1017.76
2018-08-31T15:05:01.477Z,1017.75
2018-08-31T15:15:01.635Z,1017.93
2018-08-31T15:20:01.546Z,1017.93
2018-08-31T15:30:01.538Z,1017.86
2018-08-31T15:35:01.531Z,1017.89
2018-08-31T15:40:01.596Z,1017.89
2018-08-31T15:45:01.602Z,1017.93
2018-08-31T15:55:01.564Z,1017.89
2018-08-31T16:00:02.781Z,1017.89
2018-08-31T16:10:01.539Z,1018.03
2018-08-31T16:15:01.554Z,1017.95
2018-08-31T16:20:01.543Z,1017.95
2018-08-31T16:25:01.568Z,1018.06
2018-08-31T16:30:02.189Z,1018.06
2018-08-31T16:35:01.543Z,1018.12
2018-08-31T16:45:01.614Z,1018.19
2018-08-31T17:00:01.799Z,1018.17
2018-08-31T17:05:01.548Z,1018.24
2018-08-31T17:15:01.614Z,1018.21
2018-08-31T17:25:03.389Z,1018.27
2018-08-31T17:30:01.551Z,1018.27
2018-08-31T17:35:01.636Z,1018.36
2018-08-31T17:40:01.498Z,1018.36
2018-08-31T17:45:01.618Z,1018.48
2018-08-31T17:50:01.598Z,1018.48
2018-08-31T17:55:01.641Z,1018.49
2018-08-31T18:00:01.561Z,1018.49
2018-08-31T18:05:01.612Z,1018.63
2018-08-31T18:10:01.615Z,1018.63
2018-08-31T18:15:01.569Z,1018.71
2018-08-31T18:20:01.618Z,1018.71
2018-08-31T18:26:01.573Z,1018.83
2018-08-31T18:31:01.530Z,1018.83
2018-08-31T18:36:01.555Z,1018.93
2018-08-31T18:46:01.739Z,1019.05
2018-08-31T18:56:01.579Z,1019.24
2018-08-31T19:01:01.545Z,1019.24
2018-08-31T19:07:01.819Z,1019.35
2018-08-31T19:17:01.615Z,1019.43
2018-08-31T19:22:01.396Z,1019.53
2018-08-31T19:32:01.494Z,1019.58
2018-08-31T19:42:01.471Z,1019.69
2018-08-31T19:57:01.603Z,1019.66
2018-08-31T20:12:01.520Z,1019.83
2018-08-31T20:22:01.522Z,1019.77
2018-08-31T20:27:01.521Z,1019.77
2018-08-31T20:32:01.395Z,1019.8
2018-08-31T20:42:01.530Z,1019.84
2018-08-31T20:47:01.535Z,1019.84
2018-08-31T20:52:01.475Z,1019.92
2018-08-31T20:57:01.496Z,1019.92
2018-08-31T21:02:01.441Z,1019.84
2018-08-31T21:07:01.510Z,1019.84
2018-08-31T21:12:01.399Z,1020.08
2018-08-31T21:17:01.435Z,1020.08
2018-08-31T21:22:01.409Z,1020.22
2018-08-31T21:27:02.554Z,1020.22
2018-08-31T21:37:01.531Z,1020.22
2018-08-31T21:42:01.493Z,1020.33
2018-08-31T21:57:04.690Z,1020.4
2018-08-31T22:12:01.464Z,1020.45
2018-08-31T22:27:01.506Z,1020.43
2018-08-31T22:37:01.528Z,1020.4
2018-08-31T22:52:01.540Z,1020.45
2018-08-31T23:07:01.486Z,1020.44
2018-08-31T23:17:01.506Z,1020.54
2018-08-31T23:22:01.406Z,1020.72
2018-08-31T23:27:01.527Z,1020.72
2018-08-31T23:32:01.456Z,1020.75
2018-08-31T23:37:01.430Z,1020.75
2018-08-31T23:42:01.398Z,1020.71
2018-08-31T23:52:01.469Z,1020.82
2018-08-31T23:57:01.576Z,1020.82
